Airfield :
LOGIN :

Register | Disclaimer

   EN    FR    IT 

 










Legend :    VFR   Marginal VFR   IFR   Intensive IFR   Very Intensive IFR
Visi :
Ceiling :
>= 8 km
>= 3000ft
5 to 8 km
1000 to 3000 ft
1500m to 5 km
500 to 1000 ft
800 to 1500m
200 to 500 ft
< 800m
< 200 ft
Symbols :   Thunderstorms  Fog  Heavy snow  Heavy precipitations  Wind > 20 kt
SIGMETs :     Misc.  Thunderstorms  Icing  Turbulence  Mountain Waves  Volcanic Ashes







- Airport Elevation : 135 ft
- IATA code : EDI
- Download approach charts


EGPH - Edinburgh

CURRENT METAR :
  • 231450Z 26011KT 9999 FEW031 09/01 Q1031

EXPIRED METARs :
  • 231420Z 26011KT 9999 SCT035 09/02 Q1031
  • 231350Z 26011KT 9999 SCT043 09/00 Q1030
  • 231320Z 27008KT 240V300 9999 SCT045 09/M00 Q1030
  • 231250Z 28010KT 240V300 9999 SCT045 10/00 Q1031
  • 231220Z 29009KT 240V330 9999 SCT037 09/M00 Q1030
  • 231150Z 28009KT 260V320 9999 FEW036 09/01 Q1030

TAF TAF EGPH
Valid from the 23 at 12:00 until the 24 at 12:00 UTC


231056Z 2312/2412 26012KT 9999 FEW035
TEMPO 2403/2412 8000 -SHRA
PROB40
TEMPO 2406/2412 25018G28KT SHRA BKN014
ATIS : +44 131 339 2823
No reported NOTAMs for that airfield.
1 SIGMET reported for the Scottish FIR (EGPX) :
 
Severe turbulence
EGPX SIGMET 03 VALID 231100/231500 EGRR
EGPX SCOTTISH FIR SEV TURB FCST NE OF LINE N6022 W01000 - N5819 E00248 SFC/FL060 MOV NE 15KT WKN=



MET'MAP, your aeronautical weather chart ! - Copyright ORBIFLY December 2007 - Disclaimer

ORBIFLY MET'MAP TEAM :

Programming & Development : Alexandra Zaïnal
Concept & Development : Baudouin d'Aumeries
Co-Development & Prog : Marc-Olivier Méhu
Technical & hardware support : Manuel Goepfert

Contact : metmap@orbifly.com




SOURCES & CREDITS :

   NOAA